createdAt,value
2022-09-01T00:00:31.194Z,97848.48
2022-09-01T00:01:45.913Z,97850.59
2022-09-01T00:02:54.506Z,97848.71
2022-09-01T00:04:05.441Z,97846.02
2022-09-01T00:05:13.396Z,97849.84
2022-09-01T00:06:23.918Z,97850.98
2022-09-01T00:07:35.193Z,97850.41
2022-09-01T00:08:41.412Z,97852.63
2022-09-01T00:09:48.114Z,97851.33
2022-09-01T00:10:54.222Z,97850.92
2022-09-01T00:12:00.644Z,97852.27
2022-09-01T00:13:07.647Z,97856.05
2022-09-01T00:14:29.857Z,97850.80
2022-09-01T00:15:38.490Z,97858.45
2022-09-01T00:16:45.272Z,97856.33
2022-09-01T00:17:57.542Z,97858.71
2022-09-01T00:19:04.501Z,97858.55
2022-09-01T00:20:18.249Z,97856.61
2022-09-01T00:21:31.663Z,97862.04
2022-09-01T00:22:39.190Z,97859.81
2022-09-01T00:23:46.433Z,97860.84
2022-09-01T00:24:52.384Z,97854.91
2022-09-01T00:25:59.863Z,97854.74
2022-09-01T00:27:06.272Z,97859.41
2022-09-01T00:28:13.659Z,97856.61
2022-09-01T00:29:21.121Z,97857.27
2022-09-01T00:30:28.562Z,97851.90
2022-09-01T00:31:34.778Z,97856.73
2022-09-01T00:32:41.353Z,97853.90
2022-09-01T00:33:49.301Z,97857.41
2022-09-01T00:34:55.812Z,97855.91
2022-09-01T00:36:01.962Z,97851.52
2022-09-01T00:37:10.300Z,97853.42
2022-09-01T00:38:19.875Z,97854.95
2022-09-01T00:39:29.084Z,97855.61
2022-09-01T00:40:36.391Z,97855.98
2022-09-01T00:41:45.500Z,97855.31
2022-09-01T00:42:54.460Z,97856.02
2022-09-01T00:44:06.935Z,97854.34
2022-09-01T00:45:13.222Z,97854.71
2022-09-01T00:46:28.951Z,97855.80
2022-09-01T00:47:38.122Z,97855.77
2022-09-01T00:48:45.019Z,97855.63
2022-09-01T00:49:53.871Z,97856.73
2022-09-01T00:51:00.699Z,97855.73
2022-09-01T00:52:49.553Z,97859.09
2022-09-01T00:53:56.463Z,97855.09
2022-09-01T00:55:09.931Z,97858.48
2022-09-01T00:56:17.162Z,97858.53
2022-09-01T00:57:24.572Z,97858.42
2022-09-01T00:58:32.631Z,97858.86
2022-09-01T00:59:39.156Z,97860.70
2022-09-01T01:00:45.944Z,97861.33
2022-09-01T01:01:52.103Z,97865.16
2022-09-01T01:02:59.855Z,97860.79
2022-09-01T01:04:07.193Z,97862.32
2022-09-01T01:05:17.130Z,97858.48
2022-09-01T01:06:30.694Z,97862.18
2022-09-01T01:07:47.424Z,97860.52
2022-09-01T01:09:01.764Z,97860.35
2022-09-01T01:10:11.690Z,97864.34
2022-09-01T01:11:20.812Z,97862.26
2022-09-01T01:12:31.873Z,97866.58
2022-09-01T01:14:13.052Z,97865.62
2022-09-01T01:15:20.367Z,97864.84
2022-09-01T01:16:30.865Z,97863.95
2022-09-01T01:17:36.632Z,97866.65
2022-09-01T01:18:44.307Z,97865.95
2022-09-01T01:20:15.346Z,97868.02
2022-09-01T01:21:54.161Z,97871.44
2022-09-01T01:23:20.112Z,97875.27
2022-09-01T01:24:31.811Z,97874.38
2022-09-01T01:25:42.881Z,97878.30
2022-09-01T01:26:52.564Z,97876.64
2022-09-01T01:28:32.873Z,97881.21
2022-09-01T01:29:40.943Z,97880.17
2022-09-01T01:30:53.273Z,97883.02
2022-09-01T01:31:59.406Z,97877.27
2022-09-01T01:33:07.102Z,97883.23
2022-09-01T01:34:16.072Z,97881.91
2022-09-01T01:35:24.687Z,97881.42
2022-09-01T01:36:37.380Z,97880.85
2022-09-01T01:37:49.522Z,97887.55
2022-09-01T01:39:03.292Z,97888.83
2022-09-01T01:40:17.005Z,97886.38
2022-09-01T01:41:25.293Z,97886.48
2022-09-01T01:42:34.932Z,97885.63
2022-09-01T01:43:40.942Z,97887.96
2022-09-01T01:44:51.113Z,97888.58
2022-09-01T01:45:59.535Z,97888.61
2022-09-01T01:47:13.574Z,97887.55
2022-09-01T01:48:25.102Z,97889.45
2022-09-01T01:49:31.821Z,97888.98
2022-09-01T01:50:41.942Z,97889.27
2022-09-01T01:51:50.401Z,97892.02
2022-09-01T01:53:01.201Z,97891.48
2022-09-01T01:54:08.693Z,97893.16
2022-09-01T01:55:17.352Z,97896.85
2022-09-01T01:56:26.682Z,97896.80
2022-09-01T01:57:36.003Z,97894.69
2022-09-01T01:58:46.312Z,97900.48
2022-09-01T01:59:54.724Z,97903.60
2022-09-01T02:01:12.311Z,97904.53
2022-09-01T02:02:19.879Z,97904.72
2022-09-01T02:03:38.203Z,97905.05
2022-09-01T02:04:47.982Z,97902.99
2022-09-01T02:05:55.202Z,97905.96
2022-09-01T02:07:01.248Z,97907.42
2022-09-01T02:08:10.306Z,97905.30
2022-09-01T02:09:17.801Z,97905.91
2022-09-01T02:10:35.752Z,97902.45
2022-09-01T02:11:46.792Z,97900.23
2022-09-01T02:12:53.342Z,97901.41
2022-09-01T02:13:59.905Z,97898.98
2022-09-01T02:15:08.042Z,97900.67
2022-09-01T02:16:14.781Z,97897.95
2022-09-01T02:17:22.152Z,97902.17
2022-09-01T02:18:35.437Z,97902.09
2022-09-01T02:19:43.832Z,97906.25
2022-09-01T02:20:51.101Z,97908.55
2022-09-01T02:22:00.232Z,97909.63
2022-09-01T02:23:11.861Z,97904.67
2022-09-01T02:24:18.242Z,97906.44
2022-09-01T02:25:28.018Z,97906.73
2022-09-01T02:26:49.521Z,97908.76
2022-09-01T02:27:56.313Z,97909.73
2022-09-01T02:29:05.607Z,97908.80
2022-09-01T02:30:13.276Z,97909.93
2022-09-01T02:31:21.744Z,97911.60
2022-09-01T02:32:28.703Z,97911.23
2022-09-01T02:33:35.481Z,97908.67
2022-09-01T02:34:45.272Z,97908.41
2022-09-01T02:35:53.372Z,97907.98
2022-09-01T02:36:59.412Z,97908.02
2022-09-01T02:38:06.594Z,97911.45
2022-09-01T02:39:13.349Z,97912.85
2022-09-01T02:40:19.426Z,97913.02
2022-09-01T02:41:28.232Z,97916.27
2022-09-01T02:42:36.952Z,97917.02
2022-09-01T02:43:46.852Z,97916.94
2022-09-01T02:44:54.761Z,97917.05
2022-09-01T02:46:02.434Z,97921.17
2022-09-01T02:47:10.461Z,97922.75
2022-09-01T02:48:18.586Z,97923.52
2022-09-01T02:49:29.551Z,97925.30
2022-09-01T02:50:36.692Z,97927.52
2022-09-01T02:51:46.140Z,97926.80
2022-09-01T02:52:53.682Z,97930.04
2022-09-01T02:54:02.453Z,97928.69
2022-09-01T02:55:11.043Z,97928.33
2022-09-01T02:56:19.065Z,97927.98
2022-09-01T02:57:26.319Z,97931.90
2022-09-01T02:58:35.738Z,97933.31
2022-09-01T02:59:44.095Z,97935.35
2022-09-01T03:00:55.223Z,97934.27
2022-09-01T03:02:02.875Z,97938.58
2022-09-01T03:03:09.912Z,97937.23
2022-09-01T03:04:17.692Z,97939.73
2022-09-01T03:05:27.800Z,97942.45
2022-09-01T03:06:35.433Z,97944.68
2022-09-01T03:07:43.395Z,97943.86
2022-09-01T03:08:52.962Z,97945.34
2022-09-01T03:09:59.312Z,97944.46
2022-09-01T03:11:09.677Z,97943.63
2022-09-01T03:12:20.552Z,97943.15
2022-09-01T03:13:28.512Z,97938.25
2022-09-01T03:14:36.953Z,97940.25
2022-09-01T03:15:46.458Z,97940.67
2022-09-01T03:16:52.714Z,97937.65
2022-09-01T03:18:01.355Z,97939.16
2022-09-01T03:19:10.942Z,97942.53
2022-09-01T03:20:22.138Z,97942.27
2022-09-01T03:21:30.471Z,97944.63
2022-09-01T03:22:37.593Z,97941.60
2022-09-01T03:23:45.710Z,97941.08
2022-09-01T03:24:52.203Z,97940.51
2022-09-01T03:26:00.273Z,97943.27
2022-09-01T03:27:08.712Z,97940.63
2022-09-01T03:28:15.461Z,97940.82
2022-09-01T03:29:22.001Z,97941.23
2022-09-01T03:30:28.172Z,97941.58
2022-09-01T03:31:35.473Z,97944.37
2022-09-01T03:32:42.051Z,97945.17
2022-09-01T03:33:52.201Z,97949.64
2022-09-01T03:35:04.518Z,97948.87
2022-09-01T03:36:20.451Z,97952.20
2022-09-01T03:37:30.163Z,97953.67
2022-09-01T03:38:38.461Z,97955.43
2022-09-01T03:39:45.152Z,97954.16
2022-09-01T03:40:54.232Z,97956.44
2022-09-01T03:42:01.811Z,97957.70
2022-09-01T03:43:15.112Z,97956.28
2022-09-01T03:44:23.588Z,97959.02
2022-09-01T03:45:31.488Z,97956.32
2022-09-01T03:46:39.093Z,97955.15
2022-09-01T03:47:45.859Z,97956.77
2022-09-01T03:48:59.133Z,97955.15
2022-09-01T03:50:05.691Z,97960.86
2022-09-01T03:51:15.415Z,97959.52
2022-09-01T03:52:23.011Z,97959.10
2022-09-01T03:53:33.031Z,97960.51
2022-09-01T03:54:39.579Z,97961.86
2022-09-01T03:55:48.465Z,97959.02
2022-09-01T03:56:55.858Z,97961.11
2022-09-01T03:58:15.605Z,97963.67
2022-09-01T03:59:25.979Z,97964.77
2022-09-01T04:00:48.735Z,97968.83
2022-09-01T04:01:58.304Z,97974.77
2022-09-01T04:03:06.787Z,97975.88
2022-09-01T04:04:16.244Z,97976.54
2022-09-01T04:05:24.059Z,97972.70
2022-09-01T04:06:32.218Z,97972.50
2022-09-01T04:07:39.363Z,97972.83
2022-09-01T04:08:47.333Z,97974.80
2022-09-01T04:09:54.642Z,97976.26
2022-09-01T04:11:04.171Z,97981.42
2022-09-01T04:12:16.483Z,97984.21
2022-09-01T04:13:32.921Z,97987.21
2022-09-01T04:14:39.521Z,97986.88
2022-09-01T04:15:46.418Z,97987.24
2022-09-01T04:17:10.703Z,97987.34
2022-09-01T04:18:21.898Z,97985.13
2022-09-01T04:19:31.603Z,97987.58
2022-09-01T04:20:57.461Z,97988.15
2022-09-01T04:22:09.321Z,97989.20
2022-09-01T04:23:27.888Z,97988.81
2022-09-01T04:24:36.071Z,97990.70
2022-09-01T04:25:42.441Z,97989.23
2022-09-01T04:26:51.232Z,97993.65
2022-09-01T04:28:00.652Z,97999.39
2022-09-01T04:29:07.672Z,97999.66
2022-09-01T04:30:13.911Z,98002.31
2022-09-01T04:31:28.013Z,98000.77
2022-09-01T04:32:36.712Z,98001.47
2022-09-01T04:33:47.686Z,97999.34
2022-09-01T04:34:54.213Z,97992.92
2022-09-01T04:36:01.466Z,97986.18
2022-09-01T04:37:14.072Z,97988.80
2022-09-01T04:38:22.883Z,97985.05
2022-09-01T04:39:31.083Z,97985.17
2022-09-01T04:40:42.443Z,97981.05
2022-09-01T04:41:51.803Z,97984.17
2022-09-01T04:42:57.683Z,97985.98
2022-09-01T04:44:05.315Z,97987.44
2022-09-01T04:45:20.868Z,97993.70
2022-09-01T04:46:32.613Z,97995.58
2022-09-01T04:47:42.862Z,97997.27
2022-09-01T04:48:54.550Z,97996.90
2022-09-01T04:50:01.182Z,97997.15
2022-09-01T04:51:11.710Z,97995.82
2022-09-01T04:52:32.855Z,97994.91
2022-09-01T04:53:43.542Z,97998.83
2022-09-01T04:54:50.343Z,97997.08
2022-09-01T04:55:58.913Z,97999.25
2022-09-01T04:57:05.594Z,98000.44
2022-09-01T04:58:21.187Z,98001.55
2022-09-01T04:59:33.734Z,98006.15
2022-09-01T05:00:41.582Z,98005.77
2022-09-01T05:01:50.993Z,98006.10
2022-09-01T05:03:06.211Z,98007.67
2022-09-01T05:04:48.112Z,98008.44
2022-09-01T05:05:55.653Z,98008.95
2022-09-01T05:07:02.071Z,98009.58
2022-09-01T05:08:18.503Z,98010.22
2022-09-01T05:09:36.022Z,98010.64
2022-09-01T05:11:02.233Z,98015.60
2022-09-01T05:12:28.357Z,98013.46
2022-09-01T05:13:39.292Z,98013.61
2022-09-01T05:14:47.620Z,98012.11
2022-09-01T05:16:14.040Z,98013.98
2022-09-01T05:17:22.203Z,98016.02
2022-09-01T05:18:30.609Z,98015.31
2022-09-01T05:19:37.821Z,98013.50
2022-09-01T05:20:44.822Z,98014.10
2022-09-01T05:21:58.064Z,98013.33
2022-09-01T05:23:04.520Z,98012.95
2022-09-01T05:24:12.997Z,98011.70
2022-09-01T05:25:20.023Z,98012.69
2022-09-01T05:26:34.780Z,98009.22
2022-09-01T05:27:47.971Z,98011.58
2022-09-01T05:28:57.120Z,98009.38
2022-09-01T05:30:08.964Z,98014.22
2022-09-01T05:31:20.502Z,98007.60
2022-09-01T05:32:29.491Z,98006.86
2022-09-01T05:33:43.124Z,98005.44
2022-09-01T05:34:51.263Z,98005.41
2022-09-01T05:36:01.642Z,98008.34
2022-09-01T05:37:09.324Z,98006.40
2022-09-01T05:38:19.086Z,98006.66
2022-09-01T05:39:25.811Z,98004.52
2022-09-01T05:40:33.523Z,98007.95
2022-09-01T05:41:42.803Z,98006.63
2022-09-01T05:42:51.413Z,98007.11
2022-09-01T05:44:00.882Z,98008.16
2022-09-01T05:45:08.613Z,98008.68
2022-09-01T05:46:17.607Z,98008.61
2022-09-01T05:47:24.189Z,98008.45
2022-09-01T05:48:36.183Z,98005.23
2022-09-01T05:49:45.493Z,98004.95
2022-09-01T05:50:57.453Z,98004.76
2022-09-01T05:52:03.632Z,98005.48
2022-09-01T05:53:16.370Z,98011.20
2022-09-01T05:54:26.453Z,98012.66
2022-09-01T05:55:37.203Z,98012.63
2022-09-01T05:56:45.318Z,98012.98
2022-09-01T05:58:01.079Z,98016.84
2022-09-01T05:59:23.797Z,98016.70
2022-09-01T06:00:39.562Z,98015.54
2022-09-01T06:01:50.702Z,98016.62
2022-09-01T06:02:59.227Z,98016.67
2022-09-01T06:04:06.391Z,98018.11
2022-09-01T06:05:13.804Z,98018.52
2022-09-01T06:06:23.572Z,98020.05
2022-09-01T06:07:32.042Z,98018.27
2022-09-01T06:08:46.490Z,98021.00
2022-09-01T06:09:54.432Z,98020.06
2022-09-01T06:11:02.472Z,98014.06
2022-09-01T06:12:13.972Z,98015.39
2022-09-01T06:13:22.255Z,98011.88
2022-09-01T06:14:36.721Z,98011.07
2022-09-01T06:15:44.119Z,98010.98
2022-09-01T06:16:51.833Z,98012.52
2022-09-01T06:17:59.412Z,98007.81
2022-09-01T06:19:07.103Z,98008.23
2022-09-01T06:20:14.953Z,98008.90
2022-09-01T06:21:22.142Z,98011.45
2022-09-01T06:22:29.358Z,98013.41
2022-09-01T06:23:38.716Z,98017.23
2022-09-01T06:24:53.748Z,98014.17
2022-09-01T06:26:08.125Z,98011.19
2022-09-01T06:27:18.545Z,98012.27
2022-09-01T06:28:24.875Z,98014.99
2022-09-01T06:29:32.343Z,98012.69
2022-09-01T06:30:40.872Z,98015.40
2022-09-01T06:31:52.842Z,98016.59
2022-09-01T06:32:59.042Z,98018.69
2022-09-01T06:34:06.221Z,98020.16
2022-09-01T06:35:18.682Z,98015.88
2022-09-01T06:36:24.871Z,98016.80
2022-09-01T06:37:35.822Z,98013.30
2022-09-01T06:38:44.082Z,98014.29
2022-09-01T06:39:53.323Z,98012.88
2022-09-01T06:41:14.633Z,98009.42
2022-09-01T06:42:21.381Z,98011.61
2022-09-01T06:43:35.272Z,98014.08
2022-09-01T06:44:43.743Z,98015.91
2022-09-01T06:45:55.178Z,98016.84
2022-09-01T06:47:06.508Z,98021.67
2022-09-01T06:48:16.982Z,98022.56
2022-09-01T06:49:34.452Z,98023.94
2022-09-01T06:52:10.472Z,98024.98
2022-09-01T06:53:35.016Z,98026.55
2022-09-01T06:54:45.521Z,98027.13
2022-09-01T06:55:54.081Z,98025.44
2022-09-01T06:57:00.276Z,98024.23
2022-09-01T06:58:09.123Z,98023.23
2022-09-01T06:59:23.059Z,98020.63
2022-09-01T07:00:29.452Z,98021.70
2022-09-01T07:01:39.006Z,98018.77
2022-09-01T07:02:47.877Z,98017.70
2022-09-01T07:04:19.363Z,98013.94
2022-09-01T07:12:27.882Z,98012.75
2022-09-01T07:13:38.816Z,98014.55
2022-09-01T07:16:33.313Z,98011.69
2022-09-01T07:17:56.183Z,98009.88
2022-09-01T07:19:03.902Z,98010.85
2022-09-01T07:20:23.793Z,98006.73
2022-09-01T07:23:06.349Z,98015.79
2022-09-01T07:24:18.738Z,98012.91
2022-09-01T07:26:00.478Z,98016.48
2022-09-01T07:27:25.565Z,98015.88
2022-09-01T07:28:47.903Z,98016.67
2022-09-01T07:29:56.722Z,98011.81
2022-09-01T07:32:43.554Z,98005.88
2022-09-01T07:33:54.246Z,98005.70
2022-09-01T07:35:01.911Z,98003.67
2022-09-01T07:36:26.941Z,98005.55
2022-09-01T07:42:32.153Z,98013.50
2022-09-01T07:44:36.393Z,98001.70
2022-09-01T07:47:54.212Z,98002.66
2022-09-01T07:49:28.502Z,98004.26
2022-09-01T07:51:07.627Z,98000.72
2022-09-01T07:51:59.914Z,97998.86
2022-09-01T07:53:06.232Z,98000.23
2022-09-01T07:54:14.562Z,97997.30
2022-09-01T07:55:22.272Z,97992.11
2022-09-01T07:56:37.560Z,97989.66
2022-09-01T07:57:47.831Z,97983.98
2022-09-01T07:58:54.592Z,97982.66
2022-09-01T08:00:01.443Z,97980.98
2022-09-01T08:01:24.077Z,97978.36
2022-09-01T08:02:33.530Z,97977.25
2022-09-01T08:03:41.562Z,97974.77
2022-09-01T08:04:48.153Z,97974.82
2022-09-01T08:05:58.241Z,97974.98
2022-09-01T08:07:07.744Z,97974.27
2022-09-01T08:08:25.000Z,97975.10
2022-09-01T08:09:44.013Z,97978.15
2022-09-01T08:10:54.370Z,97978.61
2022-09-01T08:12:02.720Z,97980.11
2022-09-01T08:13:16.312Z,97981.41
2022-09-01T08:14:24.853Z,97983.02
2022-09-01T08:15:41.806Z,97982.76
2022-09-01T08:17:34.055Z,97983.16
2022-09-01T08:18:48.095Z,97980.23
2022-09-01T08:20:17.595Z,97979.47
2022-09-01T08:21:31.752Z,97977.05
2022-09-01T08:22:42.804Z,97981.27
2022-09-01T08:24:13.600Z,97979.04
2022-09-01T08:25:24.242Z,97977.68
2022-09-01T08:26:40.810Z,97980.95
2022-09-01T08:27:47.702Z,97981.80
2022-09-01T08:28:55.469Z,97979.85
2022-09-01T08:30:15.362Z,97979.42
2022-09-01T08:31:22.489Z,97980.11
2022-09-01T08:32:29.511Z,97975.86
2022-09-01T08:33:36.242Z,97973.34
2022-09-01T08:34:44.143Z,97973.58
2022-09-01T08:35:52.403Z,97969.19
2022-09-01T08:36:59.912Z,97969.46
2022-09-01T08:38:06.984Z,97968.89
2022-09-01T08:39:13.183Z,97964.55
2022-09-01T08:40:21.173Z,97962.70
2022-09-01T08:42:07.192Z,97965.02
2022-09-01T08:43:28.225Z,97966.42
2022-09-01T08:44:46.303Z,97970.70
2022-09-01T08:45:59.287Z,97969.13
2022-09-01T08:47:15.535Z,97967.02
2022-09-01T08:49:54.483Z,97964.14
2022-09-01T08:51:48.082Z,97961.74
2022-09-01T08:53:12.531Z,97961.17
2022-09-01T08:54:38.832Z,97958.30
2022-09-01T08:55:46.582Z,97953.94
2022-09-01T08:56:55.472Z,97952.10
2022-09-01T08:58:25.831Z,97949.73
2022-09-01T09:00:12.693Z,97947.33
2022-09-01T09:01:33.098Z,97946.30
2022-09-01T09:02:52.543Z,97946.20
2022-09-01T09:04:10.152Z,97947.94
2022-09-01T09:05:45.003Z,97952.81
2022-09-01T09:07:13.893Z,97952.61
2022-09-01T09:08:59.060Z,97957.10
2022-09-01T09:10:42.463Z,97961.10
2022-09-01T09:11:55.497Z,97961.16
2022-09-01T09:13:35.282Z,97961.27
2022-09-01T09:15:28.681Z,97956.13
2022-09-01T09:16:44.063Z,97954.86
2022-09-01T09:18:01.008Z,97954.07
2022-09-01T09:19:22.932Z,97951.54
2022-09-01T09:20:30.623Z,97951.70
2022-09-01T09:21:44.725Z,97949.02
2022-09-01T09:22:52.064Z,97949.45
2022-09-01T09:24:52.494Z,97949.27
2022-09-01T09:25:59.322Z,97952.55
2022-09-01T09:27:05.322Z,97953.34
2022-09-01T09:28:14.162Z,97952.47
2022-09-01T09:29:23.303Z,97951.23
2022-09-01T09:30:32.588Z,97951.77
2022-09-01T09:31:50.363Z,97953.33
2022-09-01T09:34:36.102Z,97949.98
2022-09-01T09:35:46.752Z,97945.97
2022-09-01T09:36:55.469Z,97947.84
2022-09-01T09:38:30.232Z,97950.02
2022-09-01T09:39:37.353Z,97947.14
2022-09-01T09:41:18.427Z,97944.77
2022-09-01T09:42:34.707Z,97943.33
2022-09-01T09:43:47.648Z,97943.27
2022-09-01T09:44:57.687Z,97938.33
2022-09-01T09:46:29.278Z,97935.97
2022-09-01T09:47:44.729Z,97936.67
2022-09-01T09:49:12.752Z,97936.42
2022-09-01T09:50:25.002Z,97936.36
2022-09-01T09:51:32.122Z,97934.52
2022-09-01T09:52:40.003Z,97930.02
2022-09-01T09:53:47.875Z,97927.65
2022-09-01T09:55:24.233Z,97922.33
2022-09-01T09:56:36.987Z,97919.92
2022-09-01T09:57:44.043Z,97915.10
2022-09-01T09:58:51.103Z,97914.27
2022-09-01T10:00:03.442Z,97915.46
2022-09-01T10:01:26.737Z,97911.76
2022-09-01T10:02:38.892Z,97910.92
2022-09-01T10:03:52.840Z,97909.20
2022-09-01T10:04:59.932Z,97906.05
2022-09-01T10:06:06.752Z,97905.64
2022-09-01T10:07:35.823Z,97904.25
2022-09-01T10:08:49.510Z,97904.08
2022-09-01T10:09:57.295Z,97902.95
2022-09-01T10:11:08.392Z,97903.85
2022-09-01T10:12:17.222Z,97905.13
2022-09-01T10:13:25.915Z,97906.60
2022-09-01T10:14:52.611Z,97908.77
2022-09-01T10:16:05.581Z,97914.33
2022-09-01T10:17:17.767Z,97918.69
2022-09-01T10:18:46.302Z,97921.84
2022-09-01T10:19:57.604Z,97923.55
2022-09-01T10:21:11.842Z,97924.92
2022-09-01T10:22:18.431Z,97923.29
2022-09-01T10:23:27.404Z,97923.51
2022-09-01T10:24:44.695Z,97923.08
2022-09-01T10:25:55.792Z,97920.61
2022-09-01T10:27:14.817Z,97917.77
2022-09-01T10:28:24.865Z,97918.10
2022-09-01T10:30:22.924Z,97918.48
2022-09-01T10:31:32.802Z,97917.69
2022-09-01T10:32:54.906Z,97924.31
2022-09-01T10:34:05.692Z,97926.02
2022-09-01T10:35:24.668Z,97925.07
2022-09-01T10:36:32.223Z,97924.54
2022-09-01T10:37:41.438Z,97926.65
2022-09-01T10:38:53.556Z,97925.68
2022-09-01T10:40:20.561Z,97925.28
2022-09-01T10:42:00.466Z,97924.83
2022-09-01T10:43:29.376Z,97925.25
2022-09-01T10:44:39.914Z,97920.79
2022-09-01T10:45:50.028Z,97918.41
2022-09-01T10:47:42.074Z,97915.81
2022-09-01T10:48:56.217Z,97914.89
2022-09-01T10:50:25.362Z,97911.06
2022-09-01T10:51:51.464Z,97907.98
2022-09-01T10:53:02.277Z,97908.85
2022-09-01T10:54:09.053Z,97904.86
2022-09-01T10:55:26.882Z,97904.08
2022-09-01T10:56:45.205Z,97903.08
2022-09-01T11:00:36.811Z,97905.44
2022-09-01T11:01:49.510Z,97906.70
2022-09-01T11:03:30.559Z,97908.66
2022-09-01T11:04:42.555Z,97907.06
2022-09-01T11:06:12.336Z,97905.84
2022-09-01T11:07:44.233Z,97902.15
2022-09-01T11:09:02.333Z,97901.91
2022-09-01T11:10:34.821Z,97899.66
2022-09-01T11:12:13.134Z,97900.25
2022-09-01T11:13:56.652Z,97901.55
2022-09-01T11:15:07.431Z,97897.39
2022-09-01T11:16:46.423Z,97899.84
2022-09-01T11:18:00.230Z,97900.98
2022-09-01T11:19:25.395Z,97902.04
2022-09-01T11:20:39.113Z,97904.05
2022-09-01T11:21:48.922Z,97906.47
2022-09-01T11:23:14.941Z,97903.27
2022-09-01T11:24:52.029Z,97905.77
2022-09-01T11:26:27.214Z,97908.38
2022-09-01T11:27:53.591Z,97902.53
2022-09-01T11:29:00.724Z,97900.75
2022-09-01T11:30:12.561Z,97898.20
2022-09-01T11:31:26.986Z,97899.70
2022-09-01T11:32:42.611Z,97902.05
2022-09-01T11:34:14.427Z,97899.86
2022-09-01T11:35:24.202Z,97896.20
2022-09-01T11:36:36.176Z,97895.33
2022-09-01T11:37:45.414Z,97893.18
2022-09-01T11:39:07.732Z,97895.02
2022-09-01T11:40:15.304Z,97899.59
2022-09-01T11:41:35.266Z,97899.69
2022-09-01T11:42:45.859Z,97904.77
2022-09-01T11:43:59.212Z,97906.19
2022-09-01T11:45:06.422Z,97903.08
2022-09-01T11:46:23.465Z,97904.02
2022-09-01T11:47:34.891Z,97909.73
2022-09-01T11:48:47.583Z,97907.87
2022-09-01T11:50:04.019Z,97910.08
2022-09-01T11:51:14.732Z,97905.35
2022-09-01T11:52:23.200Z,97905.63
2022-09-01T11:53:29.183Z,97905.17
2022-09-01T11:54:43.433Z,97904.02
2022-09-01T11:55:53.513Z,97901.13
2022-09-01T11:56:59.723Z,97897.80
2022-09-01T11:58:07.022Z,97900.22
2022-09-01T11:59:13.823Z,97900.66
2022-09-01T12:00:28.171Z,97901.34
2022-09-01T12:01:37.524Z,97901.21
2022-09-01T12:02:51.580Z,97902.80
2022-09-01T12:03:59.602Z,97904.41
2022-09-01T12:05:05.802Z,97903.64
2022-09-01T12:06:14.249Z,97908.63
2022-09-01T12:07:39.353Z,97909.52
2022-09-01T12:09:01.031Z,97907.77
2022-09-01T12:10:18.952Z,97908.94
2022-09-01T12:11:33.032Z,97914.11
2022-09-01T12:12:40.793Z,97912.81
2022-09-01T12:13:57.483Z,97912.89
2022-09-01T12:15:06.788Z,97916.25
2022-09-01T12:16:18.524Z,97920.05
2022-09-01T12:17:24.881Z,97917.80
2022-09-01T12:18:33.111Z,97920.80
2022-09-01T12:19:41.982Z,97922.09
2022-09-01T12:20:51.744Z,97920.95
2022-09-01T12:22:20.963Z,97921.48
2022-09-01T12:23:39.121Z,97916.52
2022-09-01T12:24:55.592Z,97912.60
2022-09-01T12:26:11.750Z,97914.02
2022-09-01T12:27:19.859Z,97913.80
2022-09-01T12:28:30.634Z,97914.38
2022-09-01T12:29:39.442Z,97916.65
2022-09-01T12:30:46.553Z,97918.93
2022-09-01T12:31:56.966Z,97921.75
2022-09-01T12:34:48.962Z,97929.09
2022-09-01T12:36:23.583Z,97930.17
2022-09-01T12:37:29.315Z,97926.20
2022-09-01T12:38:37.681Z,97926.11
2022-09-01T12:39:52.151Z,97927.74
2022-09-01T12:40:59.127Z,97926.08
2022-09-01T12:42:07.511Z,97927.21
2022-09-01T12:43:14.143Z,97926.95
2022-09-01T12:44:48.227Z,97929.31
2022-09-01T12:45:55.781Z,97933.10
2022-09-01T12:47:03.751Z,97935.75
2022-09-01T12:48:25.645Z,97934.75
2022-09-01T12:49:50.018Z,97933.96
2022-09-01T12:50:58.027Z,97935.41
2022-09-01T12:52:28.627Z,97938.70
2022-09-01T12:53:37.054Z,97939.89
2022-09-01T12:54:44.035Z,97939.93
2022-09-01T12:56:18.799Z,97938.44
2022-09-01T12:57:36.281Z,97940.70
2022-09-01T12:58:46.357Z,97939.62
2022-09-01T13:00:14.057Z,97942.51
2022-09-01T13:01:33.548Z,97935.86
2022-09-01T13:02:49.603Z,97932.61
2022-09-01T13:04:09.576Z,97933.88
2022-09-01T13:05:41.918Z,97935.78
2022-09-01T13:06:51.816Z,97933.42
2022-09-01T13:08:07.593Z,97938.75
2022-09-01T13:09:13.835Z,97936.70
2022-09-01T13:10:26.064Z,97938.55
2022-09-01T13:13:02.815Z,97942.51
2022-09-01T13:14:09.695Z,97944.88
2022-09-01T13:15:15.818Z,97945.61
2022-09-01T13:16:25.553Z,97947.75
2022-09-01T13:17:32.106Z,97949.39
2022-09-01T13:20:08.335Z,97948.60
2022-09-01T13:21:15.176Z,97948.88
2022-09-01T13:22:23.166Z,97953.14
2022-09-01T13:23:29.272Z,97954.55
2022-09-01T13:24:36.935Z,97961.45
2022-09-01T13:25:47.188Z,97967.93
2022-09-01T13:29:38.475Z,97972.86
2022-09-01T13:30:46.216Z,97973.68
2022-09-01T13:33:21.725Z,97980.49
2022-09-01T13:34:29.483Z,97978.27
2022-09-01T13:35:37.276Z,97971.45
2022-09-01T13:36:51.165Z,97977.10
2022-09-01T13:38:00.062Z,97978.40
2022-09-01T13:39:07.121Z,97977.65
2022-09-01T13:40:16.860Z,97979.88
2022-09-01T13:41:23.585Z,97979.70
2022-09-01T13:42:32.172Z,97977.30
2022-09-01T13:43:39.457Z,97979.91
2022-09-01T13:44:49.589Z,97979.35
2022-09-01T13:45:59.040Z,97976.38
2022-09-01T13:50:07.065Z,97975.59
2022-09-01T13:51:18.126Z,97973.63
2022-09-01T13:52:26.957Z,97973.67
2022-09-01T13:53:35.325Z,97970.58
2022-09-01T13:54:45.722Z,97970.31
2022-09-01T13:55:53.525Z,97973.00
2022-09-01T13:57:01.486Z,97972.36
2022-09-01T13:58:07.691Z,97973.32
2022-09-01T13:59:13.878Z,97978.34
2022-09-01T14:00:25.846Z,97979.16
2022-09-01T14:01:33.183Z,97978.45
2022-09-01T14:02:51.415Z,97978.50
2022-09-01T14:04:00.634Z,97979.79
2022-09-01T14:05:07.226Z,97978.98
2022-09-01T14:06:14.257Z,97978.19
2022-09-01T14:07:22.846Z,97978.27
2022-09-01T14:08:32.435Z,97977.66
2022-09-01T14:09:40.695Z,97979.44
2022-09-01T14:10:51.827Z,97980.84
2022-09-01T14:11:58.543Z,97985.08
2022-09-01T14:13:06.535Z,97991.70
2022-09-01T14:14:13.225Z,97995.61
2022-09-01T14:15:25.006Z,97999.73
2022-09-01T14:16:36.803Z,97994.40
2022-09-01T14:17:43.537Z,97992.35
2022-09-01T14:18:51.038Z,98000.75
2022-09-01T14:20:01.431Z,98001.52
2022-09-01T14:21:08.074Z,98005.28
2022-09-01T14:22:17.728Z,98011.05
2022-09-01T14:23:26.597Z,98014.20
2022-09-01T14:24:35.370Z,98012.44
2022-09-01T14:25:49.260Z,98014.13
2022-09-01T14:26:55.924Z,98011.17
2022-09-01T14:28:04.777Z,98011.92
2022-09-01T14:29:11.327Z,98010.23
2022-09-01T14:30:26.652Z,98006.20
2022-09-01T14:31:40.509Z,98009.95
2022-09-01T14:32:47.978Z,98011.95
2022-09-01T14:33:55.055Z,98008.39
2022-09-01T14:35:01.645Z,98007.84
2022-09-01T14:36:14.490Z,98005.16
2022-09-01T14:37:25.746Z,98003.70
2022-09-01T14:38:33.767Z,98004.73
2022-09-01T14:39:41.271Z,98006.63
2022-09-01T14:40:53.814Z,98012.08
2022-09-01T14:42:01.259Z,98005.41
2022-09-01T14:43:19.338Z,98004.05
2022-09-01T14:44:29.591Z,98003.55
2022-09-01T14:45:40.507Z,98005.69
2022-09-01T14:46:48.889Z,98006.89
2022-09-01T14:47:58.167Z,98005.44
2022-09-01T14:49:05.338Z,98006.06
2022-09-01T14:50:18.558Z,98004.89
2022-09-01T14:53:02.013Z,98002.59